createdAt,value
2022-08-17T00:00:34.379Z,22.95
2022-08-17T00:03:14.431Z,22.63
2022-08-17T00:05:59.925Z,28.08
2022-08-17T00:08:36.109Z,27.83
2022-08-17T00:11:09.733Z,22.08
2022-08-17T00:13:39.918Z,21.10
2022-08-17T00:16:13.197Z,30.83
2022-08-17T00:18:58.369Z,28.05
2022-08-17T00:22:01.382Z,31.08
2022-08-17T00:24:17.664Z,32.38
2022-08-17T00:26:46.378Z,33.05
2022-08-17T00:29:19.661Z,35.25
2022-08-17T00:31:49.184Z,32.92
2022-08-17T00:34:17.727Z,30.13
2022-08-17T00:36:45.806Z,35.35
2022-08-17T00:39:17.496Z,36.63
2022-08-17T00:41:47.184Z,35.85
2022-08-17T00:44:15.747Z,33.58
2022-08-17T00:46:44.073Z,33.25
2022-08-17T00:49:13.190Z,42.45
2022-08-17T00:51:42.773Z,38.70
2022-08-17T00:54:21.763Z,36.58
2022-08-17T00:56:55.709Z,39.58
2022-08-17T00:59:26.231Z,36.80
2022-08-17T01:01:54.200Z,35.83
2022-08-17T01:04:22.180Z,33.40
2022-08-17T01:06:51.756Z,33.80
2022-08-17T01:09:20.931Z,35.30
2022-08-17T01:11:52.478Z,35.78
2022-08-17T01:14:22.720Z,40.08
2022-08-17T01:16:51.555Z,41.10
2022-08-17T01:19:26.512Z,34.30
2022-08-17T01:22:02.172Z,29.70
2022-08-17T01:24:30.313Z,34.00
2022-08-17T01:27:02.051Z,40.90
2022-08-17T01:29:33.775Z,37.17
2022-08-17T01:32:04.595Z,40.97
2022-08-17T01:34:42.909Z,46.05
2022-08-17T01:37:19.054Z,40.80
2022-08-17T01:40:23.905Z,35.05
2022-08-17T01:42:57.426Z,38.63
2022-08-17T01:45:29.012Z,36.97
2022-08-17T01:47:57.443Z,35.75
2022-08-17T01:50:28.564Z,36.90
2022-08-17T01:53:08.073Z,46.80
2022-08-17T01:55:49.818Z,39.47
2022-08-17T01:58:18.938Z,40.38
2022-08-17T02:01:00.022Z,38.92
2022-08-17T02:03:29.594Z,40.53
2022-08-17T02:05:57.771Z,44.85
2022-08-17T02:08:38.865Z,39.50
2022-08-17T02:11:12.023Z,42.95
2022-08-17T02:13:39.990Z,38.78
2022-08-17T02:16:09.143Z,45.53
2022-08-17T02:18:37.164Z,38.38
2022-08-17T02:21:05.160Z,34.42
2022-08-17T02:23:35.707Z,38.17
2022-08-17T02:26:04.059Z,37.53
2022-08-17T02:28:32.945Z,43.53
2022-08-17T02:31:08.006Z,37.25
2022-08-17T02:33:41.775Z,39.53
2022-08-17T02:36:13.228Z,37.08
2022-08-17T02:38:41.340Z,47.42
2022-08-17T02:41:09.651Z,36.70
2022-08-17T02:43:38.152Z,52.13
2022-08-17T02:46:06.108Z,41.67
2022-08-17T02:48:34.897Z,42.63
2022-08-17T02:51:07.064Z,37.75
2022-08-17T02:53:35.818Z,35.25
2022-08-17T02:56:04.873Z,42.53
2022-08-17T02:58:35.243Z,36.50
2022-08-17T03:01:05.594Z,38.17
2022-08-17T03:03:33.398Z,34.42
2022-08-17T03:06:01.813Z,45.85
2022-08-17T03:08:30.425Z,78.20
2022-08-17T03:10:59.086Z,109.63
2022-08-17T03:13:28.636Z,57.50
2022-08-17T03:15:56.705Z,61.22
2022-08-17T03:18:26.377Z,57.53
2022-08-17T03:20:55.796Z,56.03
2022-08-17T03:23:25.248Z,49.63
2022-08-17T03:25:54.431Z,42.13
2022-08-17T03:28:22.870Z,37.60
2022-08-17T03:30:51.463Z,38.33
2022-08-17T03:33:20.968Z,34.67
2022-08-17T03:35:48.996Z,39.40
2022-08-17T03:38:18.087Z,41.38
2022-08-17T03:40:57.856Z,38.95
2022-08-17T03:43:32.781Z,32.35
2022-08-17T03:46:28.528Z,31.90
2022-08-17T03:49:23.367Z,35.38
2022-08-17T03:52:09.660Z,32.70
2022-08-17T03:57:24.973Z,38.13
2022-08-17T03:59:53.614Z,39.58
2022-08-17T04:02:33.782Z,37.80
2022-08-17T04:05:02.034Z,37.53
2022-08-17T04:07:30.842Z,40.30
2022-08-17T04:09:59.666Z,36.17
2022-08-17T04:12:32.314Z,36.15
2022-08-17T04:15:02.145Z,35.05
2022-08-17T04:17:30.931Z,38.47
2022-08-17T04:19:58.829Z,39.40
2022-08-17T04:22:33.005Z,33.17
2022-08-17T04:25:22.524Z,36.47
2022-08-17T04:27:50.489Z,44.63
2022-08-17T04:30:18.448Z,31.02
2022-08-17T04:33:03.712Z,32.08
2022-08-17T04:35:45.787Z,39.15
2022-08-17T04:38:16.050Z,38.20
2022-08-17T04:41:13.430Z,37.83
2022-08-17T04:43:41.787Z,36.78
2022-08-17T04:46:22.654Z,36.28
2022-08-17T04:48:52.084Z,26.05
2022-08-17T04:51:25.836Z,27.45
2022-08-17T04:53:58.995Z,39.35
2022-08-17T04:56:27.384Z,31.10
2022-08-17T04:58:57.834Z,39.17
2022-08-17T05:01:28.145Z,35.90
2022-08-17T05:04:20.976Z,34.00
2022-08-17T05:06:50.596Z,28.02
2022-08-17T05:09:19.264Z,23.80
2022-08-17T05:11:47.890Z,26.17
2022-08-17T05:14:16.941Z,27.52
2022-08-17T05:16:45.980Z,27.27
2022-08-17T05:19:15.386Z,32.22
2022-08-17T05:21:45.022Z,25.83
2022-08-17T05:24:38.702Z,29.15
2022-08-17T05:27:06.591Z,29.30
2022-08-17T05:29:35.728Z,27.27
2022-08-17T05:32:38.982Z,33.80
2022-08-17T05:35:00.694Z,29.30
2022-08-17T05:37:28.748Z,29.73
2022-08-17T05:39:56.802Z,28.42
2022-08-17T05:42:24.868Z,32.60
2022-08-17T05:44:53.116Z,37.60
2022-08-17T05:47:21.471Z,37.88
2022-08-17T05:49:49.422Z,39.67
2022-08-17T05:52:32.288Z,41.33
2022-08-17T05:55:20.847Z,35.47
2022-08-17T05:58:37.153Z,38.97
2022-08-17T06:01:57.823Z,30.35
2022-08-17T06:04:55.021Z,38.47
2022-08-17T06:07:50.525Z,35.35
2022-08-17T06:10:31.504Z,35.97
2022-08-17T06:12:59.981Z,43.58
2022-08-17T06:15:52.005Z,35.83
2022-08-17T06:18:23.872Z,47.40
2022-08-17T06:20:53.997Z,47.63
2022-08-17T06:23:35.492Z,38.58
2022-08-17T06:26:09.066Z,36.72
2022-08-17T06:28:55.465Z,41.03
2022-08-17T06:31:35.421Z,35.45
2022-08-17T06:34:04.929Z,41.13
2022-08-17T06:36:57.439Z,42.90
2022-08-17T06:39:53.355Z,37.95
2022-08-17T06:43:02.863Z,41.63
2022-08-17T06:45:39.417Z,36.95
2022-08-17T06:48:24.545Z,31.48
2022-08-17T06:51:01.110Z,26.90
2022-08-17T06:53:38.452Z,47.35
2022-08-17T06:56:10.870Z,37.90
2022-08-17T06:58:41.183Z,35.80
2022-08-17T07:01:15.078Z,32.38
2022-08-17T07:03:48.053Z,32.35
2022-08-17T07:06:22.245Z,28.92
2022-08-17T07:09:11.012Z,31.67
2022-08-17T07:11:54.307Z,26.98
2022-08-17T07:14:40.658Z,27.23
2022-08-17T07:19:45.589Z,30.65
2022-08-17T07:22:19.559Z,30.63
2022-08-17T07:25:09.277Z,27.25
2022-08-17T07:27:40.735Z,27.85
2022-08-17T07:30:45.840Z,31.75
2022-08-17T07:33:23.374Z,28.77
2022-08-17T07:35:52.266Z,31.67
2022-08-17T07:38:28.594Z,31.15
2022-08-17T07:41:03.012Z,26.85
2022-08-17T07:43:40.914Z,28.80
2022-08-17T07:46:43.012Z,24.95
2022-08-17T07:49:11.720Z,23.23
2022-08-17T07:51:43.014Z,32.88
2022-08-17T07:54:23.400Z,23.27
2022-08-17T07:56:55.417Z,32.05
2022-08-17T07:59:34.615Z,29.45
2022-08-17T08:02:31.677Z,32.38
2022-08-17T08:05:49.174Z,26.35
2022-08-17T08:08:45.146Z,26.63
2022-08-17T08:11:41.276Z,29.95
2022-08-17T08:14:28.209Z,24.00
2022-08-17T08:17:04.565Z,27.95
2022-08-17T08:19:38.498Z,23.33
2022-08-17T08:22:11.500Z,28.77
2022-08-17T08:24:58.899Z,25.95
2022-08-17T08:27:50.675Z,26.55
2022-08-17T08:30:21.865Z,21.67
2022-08-17T08:32:59.278Z,23.55
2022-08-17T08:35:34.763Z,23.27
2022-08-17T08:38:24.103Z,22.40
2022-08-17T08:41:00.625Z,22.33
2022-08-17T08:44:07.020Z,28.42
2022-08-17T08:46:50.549Z,29.23
2022-08-17T08:50:04.665Z,30.23
2022-08-17T08:53:16.543Z,24.33
2022-08-17T08:55:55.188Z,17.25
2022-08-17T08:58:31.923Z,18.88
2022-08-17T09:04:23.281Z,15.55
2022-08-17T09:07:06.293Z,20.17
2022-08-17T09:09:41.198Z,19.00
2022-08-17T09:12:26.420Z,21.33
2022-08-17T09:15:01.822Z,17.85
2022-08-17T09:20:46.620Z,18.85
2022-08-17T09:23:36.131Z,17.50
2022-08-17T09:26:10.860Z,14.38
2022-08-17T09:28:42.815Z,19.90
2022-08-17T09:31:16.041Z,18.83
2022-08-17T09:33:46.432Z,21.50
2022-08-17T09:36:28.756Z,18.48
2022-08-17T09:39:08.341Z,21.30
2022-08-17T09:41:50.012Z,18.83
2022-08-17T09:44:39.576Z,18.73
2022-08-17T09:47:07.444Z,22.73
2022-08-17T09:49:45.911Z,18.55
2022-08-17T09:52:27.915Z,16.58
2022-08-17T09:54:58.303Z,22.02
2022-08-17T09:57:38.091Z,18.27
2022-08-17T10:00:16.449Z,22.20
2022-08-17T10:03:08.906Z,23.48
2022-08-17T10:05:48.802Z,21.92
2022-08-17T10:08:29.037Z,15.90
2022-08-17T10:11:06.042Z,21.52
2022-08-17T10:13:53.404Z,23.08
2022-08-17T10:16:23.728Z,21.13
2022-08-17T10:19:13.994Z,21.38
2022-08-17T10:22:14.552Z,17.58
2022-08-17T10:25:21.508Z,19.05
2022-08-17T10:28:19.886Z,18.75
2022-08-17T10:31:34.819Z,20.40
2022-08-17T10:34:21.980Z,21.30
2022-08-17T10:37:08.321Z,19.48
2022-08-17T10:40:20.327Z,19.60
2022-08-17T10:43:22.934Z,19.40
2022-08-17T10:46:31.297Z,16.45
2022-08-17T10:49:18.229Z,19.35
2022-08-17T10:51:48.112Z,18.20
2022-08-17T10:54:41.954Z,18.63
2022-08-17T10:57:34.256Z,16.33
2022-08-17T11:00:06.885Z,18.20
2022-08-17T11:02:54.946Z,26.45
2022-08-17T11:05:54.625Z,21.30
2022-08-17T11:08:49.837Z,21.33
2022-08-17T11:11:37.253Z,23.73
2022-08-17T11:14:33.961Z,21.65
2022-08-17T11:17:15.753Z,22.88
2022-08-17T11:20:20.630Z,24.10
2022-08-17T11:23:10.507Z,25.05
2022-08-17T11:25:39.450Z,26.30
2022-08-17T11:28:25.318Z,23.98
2022-08-17T11:30:55.497Z,23.52
2022-08-17T11:33:42.764Z,24.15
2022-08-17T11:36:52.145Z,21.98
2022-08-17T11:39:41.293Z,23.48
2022-08-17T11:42:40.934Z,17.58
2022-08-17T11:46:06.273Z,12.00
2022-08-17T11:49:05.945Z,15.77
2022-08-17T11:52:09.284Z,20.88
2022-08-17T11:55:17.599Z,13.43
2022-08-17T11:58:01.858Z,11.93
2022-08-17T12:00:45.342Z,12.73
2022-08-17T12:03:34.657Z,14.48
2022-08-17T12:06:17.669Z,14.63
2022-08-17T12:08:55.253Z,12.70
2022-08-17T12:11:56.306Z,13.50
2022-08-17T12:14:51.667Z,12.88
2022-08-17T12:17:40.219Z,14.70
2022-08-17T12:20:32.993Z,13.05
2022-08-17T12:23:16.975Z,13.63
2022-08-17T12:25:57.707Z,14.05
2022-08-17T12:28:33.857Z,11.38
2022-08-17T12:31:04.613Z,15.30
2022-08-17T12:33:34.317Z,17.65
2022-08-17T12:36:04.464Z,15.80
2022-08-17T12:38:36.971Z,12.73
2022-08-17T12:41:24.764Z,14.70
2022-08-17T12:44:16.856Z,13.63
2022-08-17T12:47:08.092Z,16.77
2022-08-17T12:49:42.439Z,18.55
2022-08-17T12:52:16.658Z,9.60
2022-08-17T12:54:51.565Z,13.95
2022-08-17T12:57:34.402Z,18.60
2022-08-17T13:00:21.949Z,14.95
2022-08-17T13:02:51.536Z,14.88
2022-08-17T13:05:37.501Z,16.63
2022-08-17T13:08:18.013Z,17.42
2022-08-17T13:10:55.744Z,17.08
2022-08-17T13:13:26.655Z,13.68
2022-08-17T13:15:56.877Z,14.80
2022-08-17T13:18:41.396Z,15.05
2022-08-17T13:21:23.632Z,15.98
2022-08-17T13:24:01.092Z,18.02
2022-08-17T13:26:34.989Z,15.63
2022-08-17T13:29:07.751Z,18.55
2022-08-17T13:31:51.893Z,21.52
2022-08-17T13:34:24.225Z,13.60
2022-08-17T13:37:27.025Z,15.68
2022-08-17T13:39:59.190Z,16.73
2022-08-17T13:42:51.822Z,18.42
2022-08-17T13:45:35.355Z,19.30
2022-08-17T13:48:16.661Z,15.50
2022-08-17T13:50:57.226Z,14.77
2022-08-17T13:53:27.923Z,18.67
2022-08-17T13:56:33.210Z,17.23
2022-08-17T13:59:11.834Z,13.75
2022-08-17T14:01:52.582Z,13.38
2022-08-17T14:04:28.198Z,15.13
2022-08-17T14:07:12.991Z,11.95
2022-08-17T14:09:54.892Z,13.80
2022-08-17T14:12:25.693Z,14.68
2022-08-17T14:14:59.394Z,14.65
2022-08-17T14:17:29.198Z,11.82
2022-08-17T14:19:57.964Z,14.93
2022-08-17T14:22:34.192Z,14.23
2022-08-17T14:25:04.876Z,14.60
2022-08-17T14:27:51.895Z,17.38
2022-08-17T14:30:23.423Z,14.90
2022-08-17T14:32:52.203Z,14.18
2022-08-17T14:35:22.669Z,19.95
2022-08-17T14:37:51.905Z,17.50
2022-08-17T14:40:57.783Z,15.73
2022-08-17T14:44:04.764Z,18.63
2022-08-17T14:46:33.292Z,16.25
2022-08-17T14:49:04.166Z,18.17
2022-08-17T14:51:32.456Z,17.17
2022-08-17T14:54:00.290Z,14.85
2022-08-17T14:56:37.743Z,14.65
2022-08-17T14:59:06.324Z,12.80
2022-08-17T15:01:35.614Z,15.18
2022-08-17T15:04:03.661Z,13.77
2022-08-17T15:06:31.868Z,16.42
2022-08-17T15:09:03.629Z,18.45
2022-08-17T15:11:32.052Z,15.20
2022-08-17T15:14:01.489Z,19.30
2022-08-17T15:16:35.899Z,16.65
2022-08-17T15:19:05.284Z,18.00
2022-08-17T15:21:36.053Z,17.45
2022-08-17T15:24:05.675Z,18.23
2022-08-17T15:26:33.700Z,17.88
2022-08-17T15:29:01.633Z,19.38
2022-08-17T15:31:32.317Z,19.65
2022-08-17T15:34:00.655Z,20.00
2022-08-17T15:36:28.595Z,21.05
2022-08-17T15:38:56.651Z,21.60
2022-08-17T15:41:28.678Z,16.00
2022-08-17T15:43:57.171Z,17.70
2022-08-17T15:46:25.804Z,14.90
2022-08-17T15:48:55.792Z,14.63
2022-08-17T15:51:25.307Z,16.73
2022-08-17T15:54:04.225Z,21.00
2022-08-17T15:56:46.439Z,17.35
2022-08-17T15:59:14.412Z,16.80
2022-08-17T16:03:14.923Z,17.70
2022-08-17T16:04:31.749Z,21.52
2022-08-17T16:07:03.867Z,18.88
2022-08-17T16:09:32.471Z,18.80
2022-08-17T16:12:09.608Z,23.38
2022-08-17T16:14:38.081Z,20.15
2022-08-17T16:17:40.109Z,21.05
2022-08-17T16:19:56.015Z,24.75
2022-08-17T16:22:33.131Z,23.52
2022-08-17T16:25:04.341Z,23.27
2022-08-17T16:27:32.440Z,26.50
2022-08-17T16:30:01.073Z,24.77
2022-08-17T16:32:31.436Z,24.38
2022-08-17T16:35:09.656Z,24.35
2022-08-17T16:37:40.443Z,21.75
2022-08-17T16:40:14.755Z,24.92
2022-08-17T16:42:46.234Z,28.20
2022-08-17T16:45:17.064Z,25.17
2022-08-17T16:47:46.093Z,28.95
2022-08-17T16:50:15.496Z,24.90
2022-08-17T16:52:43.644Z,22.90
2022-08-17T16:55:13.146Z,22.80
2022-08-17T16:57:48.535Z,17.48
2022-08-17T17:00:19.723Z,21.85
2022-08-17T17:02:48.570Z,23.77
2022-08-17T17:05:43.608Z,18.17
2022-08-17T17:08:19.717Z,18.50
2022-08-17T17:10:52.846Z,25.70
2022-08-17T17:13:23.994Z,24.83
2022-08-17T17:15:53.728Z,19.00
2022-08-17T17:18:30.674Z,23.50
2022-08-17T17:20:59.188Z,26.70
2022-08-17T17:23:41.684Z,21.65
2022-08-17T17:26:24.946Z,21.88
2022-08-17T17:29:19.473Z,21.85
2022-08-17T17:32:01.642Z,20.83
2022-08-17T17:34:30.049Z,26.27
2022-08-17T17:36:58.977Z,23.83
2022-08-17T17:39:44.486Z,24.35
2022-08-17T17:42:14.996Z,20.60
2022-08-17T17:45:02.158Z,22.73
2022-08-17T17:47:32.102Z,24.45
2022-08-17T17:50:01.826Z,20.40
2022-08-17T17:52:36.327Z,18.60
2022-08-17T17:55:18.903Z,21.00
2022-08-17T17:58:05.592Z,18.25
2022-08-17T18:00:53.783Z,21.27
2022-08-17T18:04:20.592Z,22.98
2022-08-17T18:07:15.597Z,19.52
2022-08-17T18:09:53.623Z,24.40
2022-08-17T18:12:28.541Z,29.02
2022-08-17T18:15:23.365Z,21.85
2022-08-17T18:18:10.181Z,30.52
2022-08-17T18:20:53.333Z,27.42
2022-08-17T18:23:28.908Z,29.00
2022-08-17T18:25:58.944Z,27.88
2022-08-17T18:28:32.843Z,27.50
2022-08-17T18:31:15.283Z,24.77
2022-08-17T18:33:49.301Z,25.13
2022-08-17T18:36:33.105Z,25.02
2022-08-17T18:39:24.141Z,29.27
2022-08-17T18:41:54.350Z,25.73
2022-08-17T18:44:25.944Z,22.45
2022-08-17T18:47:22.340Z,26.60
2022-08-17T18:49:57.972Z,29.15
2022-08-17T18:52:30.233Z,23.85
2022-08-17T18:55:21.441Z,25.13
2022-08-17T18:57:57.092Z,19.83
2022-08-17T19:00:46.894Z,26.05
2022-08-17T19:03:21.256Z,28.33
2022-08-17T19:05:56.162Z,28.67
2022-08-17T19:08:30.510Z,22.95
2022-08-17T19:10:58.622Z,24.60
2022-08-17T19:13:40.111Z,23.15
2022-08-17T19:16:27.287Z,25.02
2022-08-17T19:18:59.877Z,23.95
2022-08-17T19:21:37.438Z,20.27
2022-08-17T19:24:14.576Z,21.88
2022-08-17T19:26:54.826Z,27.80
2022-08-17T19:29:35.129Z,19.23
2022-08-17T19:32:04.411Z,18.95
2022-08-17T19:34:34.782Z,23.75
2022-08-17T19:37:21.712Z,26.13
2022-08-17T19:40:08.045Z,32.15
2022-08-17T19:43:12.495Z,27.40
2022-08-17T19:46:04.794Z,36.80
2022-08-17T19:48:49.068Z,34.05
2022-08-17T19:51:50.407Z,32.80
2022-08-17T19:54:24.961Z,28.52
2022-08-17T19:56:58.409Z,33.83
2022-08-17T19:59:54.643Z,31.08
2022-08-17T20:02:22.704Z,27.70
2022-08-17T20:04:51.197Z,28.77
2022-08-17T20:07:22.710Z,30.77
2022-08-17T20:10:00.023Z,26.52
2022-08-17T20:12:36.591Z,29.88
2022-08-17T20:15:10.799Z,29.77
2022-08-17T20:17:41.783Z,30.25
2022-08-17T20:20:29.823Z,22.55
2022-08-17T20:23:12.117Z,32.08
2022-08-17T20:25:50.816Z,27.85
2022-08-17T20:28:26.254Z,28.92
2022-08-17T20:30:54.732Z,24.88
2022-08-17T20:33:30.059Z,25.85
2022-08-17T20:36:11.571Z,34.50
2022-08-17T20:38:48.094Z,25.02
2022-08-17T20:41:20.971Z,26.85
2022-08-17T20:43:56.841Z,25.95
2022-08-17T20:46:43.000Z,25.02
2022-08-17T20:49:14.632Z,29.17
2022-08-17T20:52:00.627Z,26.58
2022-08-17T20:54:57.535Z,26.00
2022-08-17T20:57:34.105Z,24.83
2022-08-17T21:00:23.593Z,26.30
2022-08-17T21:02:52.218Z,25.98
2022-08-17T21:05:30.312Z,31.73
2022-08-17T21:08:16.107Z,27.65
2022-08-17T21:10:47.188Z,27.02
2022-08-17T21:13:15.600Z,31.38
2022-08-17T21:15:59.206Z,29.42
2022-08-17T21:18:45.435Z,28.05
2022-08-17T21:21:41.805Z,31.15
2022-08-17T21:24:41.150Z,28.13
2022-08-17T21:27:29.535Z,32.40
2022-08-17T21:30:10.288Z,41.17
2022-08-17T21:32:42.137Z,46.85
2022-08-17T21:35:28.703Z,44.15
2022-08-17T21:40:29.174Z,46.15
2022-08-17T21:43:32.512Z,47.45
2022-08-17T21:46:03.098Z,54.55
2022-08-17T21:48:32.609Z,51.00
2022-08-17T21:51:14.144Z,45.30
2022-08-17T21:53:42.397Z,43.15
2022-08-17T21:56:12.437Z,41.22
2022-08-17T21:58:46.599Z,38.70
2022-08-17T22:01:24.478Z,42.30
2022-08-17T22:03:59.929Z,39.05
2022-08-17T22:06:38.198Z,35.55
2022-08-17T22:09:27.934Z,36.53
2022-08-17T22:12:00.525Z,41.08
2022-08-17T22:14:53.143Z,33.50
2022-08-17T22:17:29.665Z,30.65
2022-08-17T22:20:01.512Z,29.52
2022-08-17T22:23:13.107Z,26.27
2022-08-17T22:25:56.890Z,25.23
2022-08-17T22:28:41.877Z,27.42
2022-08-17T22:31:13.247Z,25.88
2022-08-17T22:33:50.690Z,24.27
2022-08-17T22:38:58.472Z,22.55
2022-08-17T22:41:52.231Z,24.20
2022-08-17T22:44:37.851Z,21.77
2022-08-17T22:47:28.224Z,23.90
2022-08-17T22:49:58.370Z,27.25
2022-08-17T22:52:59.864Z,28.58
2022-08-17T22:55:48.447Z,23.20
2022-08-17T22:58:37.077Z,19.95
2022-08-17T23:01:24.899Z,20.55
2022-08-17T23:04:04.749Z,18.27
2022-08-17T23:06:36.577Z,19.45
2022-08-17T23:09:05.987Z,20.98
2022-08-17T23:11:50.187Z,18.48
2022-08-17T23:14:21.698Z,19.67
2022-08-17T23:16:54.207Z,17.27
2022-08-17T23:19:22.282Z,17.83
2022-08-17T23:21:55.445Z,18.77
2022-08-17T23:24:25.132Z,22.60
2022-08-17T23:26:54.338Z,22.58
2022-08-17T23:29:23.267Z,21.58
2022-08-17T23:31:55.230Z,18.15
2022-08-17T23:34:24.423Z,22.77
2022-08-17T23:36:53.287Z,19.83
2022-08-17T23:39:24.719Z,22.60
2022-08-17T23:42:00.516Z,18.07
2022-08-17T23:44:29.028Z,17.25
2022-08-17T23:46:58.253Z,16.55
2022-08-17T23:49:26.713Z,18.55
2022-08-17T23:51:55.342Z,18.50
2022-08-17T23:54:46.633Z,22.92
2022-08-17T23:57:18.412Z,19.98
2022-08-17T23:59:46.623Z,20.38
